createdAt,value
2022-10-17T05:04:00.305Z,17.60
2022-10-17T05:06:30.302Z,19.67
2022-10-17T05:09:15.855Z,17.65
2022-10-17T05:11:43.593Z,15.35
2022-10-17T05:14:11.903Z,15.97
2022-10-17T05:16:38.771Z,14.80
2022-10-17T05:19:05.719Z,19.02
2022-10-17T05:21:39.649Z,20.60
2022-10-17T05:24:08.511Z,17.10
2022-10-17T05:26:35.756Z,19.93
2022-10-17T05:29:06.209Z,17.17
2022-10-17T05:31:37.557Z,20.30
2022-10-17T05:34:09.016Z,12.32
2022-10-17T05:36:38.577Z,15.85
2022-10-17T05:39:06.235Z,15.07
2022-10-17T05:41:34.744Z,14.55
2022-10-17T05:44:04.669Z,15.40
2022-10-17T05:46:45.284Z,14.38
2022-10-17T05:49:19.609Z,22.38
2022-10-17T05:51:52.432Z,18.07
2022-10-17T05:54:19.369Z,13.93
2022-10-17T05:56:46.375Z,20.63
2022-10-17T05:59:16.055Z,15.93
2022-10-17T06:01:57.320Z,21.92
2022-10-17T06:04:24.310Z,20.43
2022-10-17T06:06:51.431Z,13.50
2022-10-17T06:09:18.249Z,16.08
2022-10-17T06:11:48.252Z,14.25
2022-10-17T06:14:15.937Z,18.45
2022-10-17T06:16:43.712Z,14.57
2022-10-17T06:19:11.637Z,20.73
2022-10-17T06:21:39.014Z,17.38
2022-10-17T06:24:20.151Z,20.02
2022-10-17T06:26:47.808Z,27.65
2022-10-17T06:29:16.176Z,14.10
2022-10-17T06:31:47.052Z,18.05
2022-10-17T06:34:14.263Z,16.48
2022-10-17T06:36:41.566Z,22.70
2022-10-17T06:39:13.324Z,18.08
2022-10-17T06:41:52.385Z,18.57
2022-10-17T06:44:19.968Z,18.05
2022-10-17T06:46:57.914Z,20.52
2022-10-17T06:49:25.114Z,25.02
2022-10-17T06:51:58.883Z,22.42
2022-10-17T06:54:34.058Z,14.37
2022-10-17T06:57:07.861Z,18.30
2022-10-17T07:00:02.854Z,18.77
2022-10-17T07:02:51.551Z,19.73
2022-10-17T07:05:19.581Z,18.00
2022-10-17T07:07:48.536Z,15.37
2022-10-17T07:10:18.596Z,16.75
2022-10-17T07:12:45.976Z,15.77
2022-10-17T07:15:13.449Z,20.00
2022-10-17T07:17:40.469Z,18.98
2022-10-17T07:20:07.982Z,18.63
2022-10-17T07:22:36.933Z,17.13
2022-10-17T07:25:04.559Z,15.55
2022-10-17T07:27:43.189Z,19.00
2022-10-17T07:30:11.457Z,19.13
2022-10-17T07:32:58.345Z,13.47
2022-10-17T07:35:25.714Z,18.33
2022-10-17T07:37:52.488Z,19.67
2022-10-17T07:40:20.786Z,16.85
2022-10-17T07:42:47.971Z,16.23
2022-10-17T07:45:15.852Z,14.67
2022-10-17T07:47:44.005Z,12.75
2022-10-17T07:50:13.926Z,15.13
2022-10-17T07:52:43.310Z,25.00
2022-10-17T07:55:13.012Z,20.95
2022-10-17T07:57:40.406Z,22.33
2022-10-17T08:00:10.648Z,22.48
2022-10-17T08:02:41.466Z,16.30
2022-10-17T08:05:10.891Z,18.30
2022-10-17T08:07:37.863Z,27.60
2022-10-17T08:10:05.534Z,22.07
2022-10-17T08:12:34.398Z,20.88
2022-10-17T08:15:01.855Z,25.75
2022-10-17T08:17:29.206Z,18.77
2022-10-17T08:19:55.989Z,18.05
2022-10-17T08:22:25.343Z,18.40
2022-10-17T08:24:54.963Z,22.45
2022-10-17T08:27:24.939Z,14.52
2022-10-17T08:29:53.517Z,20.70
2022-10-17T08:32:22.367Z,16.83
2022-10-17T08:34:49.376Z,18.33
2022-10-17T08:37:16.282Z,15.60
2022-10-17T08:39:43.817Z,17.33
2022-10-17T08:42:44.554Z,28.33
2022-10-17T08:45:45.927Z,33.22
2022-10-17T08:48:17.035Z,35.63
2022-10-17T08:51:00.692Z,33.75
2022-10-17T08:53:36.985Z,30.77
2022-10-17T08:56:55.320Z,33.08
2022-10-17T08:59:30.033Z,23.52
2022-10-17T09:02:44.535Z,29.63
2022-10-17T09:05:14.412Z,33.38
2022-10-17T09:08:04.290Z,35.13
2022-10-17T09:10:38.045Z,31.45
2022-10-17T09:13:27.013Z,34.47
2022-10-17T09:16:14.976Z,22.77
2022-10-17T09:23:23.974Z,24.20
2022-10-17T09:25:58.213Z,28.23
2022-10-17T09:28:33.101Z,39.70
2022-10-17T09:31:12.854Z,34.87
2022-10-17T09:34:00.473Z,40.08
2022-10-17T09:36:35.563Z,29.52
2022-10-17T09:39:21.487Z,34.20
2022-10-17T09:41:55.532Z,33.63
2022-10-17T09:44:29.453Z,36.13
2022-10-17T09:47:16.821Z,29.73
2022-10-17T09:49:46.710Z,24.05
2022-10-17T09:52:18.234Z,28.75
2022-10-17T09:54:51.512Z,28.85
2022-10-17T09:57:20.517Z,32.80
2022-10-17T09:59:57.597Z,26.88
2022-10-17T10:02:26.009Z,19.73
2022-10-17T10:05:04.545Z,22.48
2022-10-17T10:07:36.170Z,29.00
2022-10-17T10:10:04.926Z,25.30
2022-10-17T10:12:35.308Z,22.40
2022-10-17T10:15:02.723Z,20.98
2022-10-17T10:17:44.372Z,24.95
2022-10-17T10:20:32.006Z,18.67
2022-10-17T10:23:17.254Z,18.87
2022-10-17T10:26:05.354Z,20.80
2022-10-17T10:28:34.880Z,18.33
2022-10-17T10:31:07.817Z,21.02
2022-10-17T10:33:46.961Z,20.00
2022-10-17T10:36:16.652Z,19.43
2022-10-17T10:38:53.125Z,19.00
2022-10-17T10:41:20.127Z,15.93
2022-10-17T10:43:50.086Z,15.05
2022-10-17T10:46:16.971Z,18.20
2022-10-17T10:48:59.793Z,19.33
2022-10-17T10:51:37.928Z,22.02
2022-10-17T10:54:20.230Z,19.85
2022-10-17T10:56:53.340Z,16.88
2022-10-17T10:59:26.730Z,25.65
2022-10-17T11:02:17.664Z,16.40
2022-10-17T11:04:59.746Z,16.48
2022-10-17T11:07:43.555Z,17.33
2022-10-17T11:10:30.693Z,14.77
2022-10-17T11:13:16.969Z,15.20
2022-10-17T11:16:14.434Z,18.23
2022-10-17T11:18:47.310Z,17.63
2022-10-17T11:24:25.723Z,15.98
2022-10-17T11:27:00.809Z,15.27
2022-10-17T11:29:39.434Z,14.87
2022-10-17T11:32:19.679Z,22.45
2022-10-17T11:34:51.549Z,23.95
2022-10-17T11:37:26.720Z,13.88
2022-10-17T11:40:02.234Z,20.33
2022-10-17T11:42:35.713Z,18.80
2022-10-17T11:45:09.093Z,11.82
2022-10-17T11:47:46.502Z,14.80
2022-10-17T11:53:27.439Z,16.15
2022-10-17T11:55:57.879Z,14.20
2022-10-17T12:01:14.683Z,17.90
2022-10-17T12:04:06.177Z,12.88
2022-10-17T12:07:14.077Z,13.43
2022-10-17T12:10:07.033Z,16.13
2022-10-17T12:12:35.443Z,14.45
2022-10-17T12:15:23.342Z,14.82
2022-10-17T12:17:56.461Z,16.55
2022-10-17T12:20:26.306Z,14.45
2022-10-17T12:23:13.483Z,15.33
2022-10-17T12:25:58.411Z,18.30
2022-10-17T12:28:41.168Z,18.08
2022-10-17T12:31:23.327Z,13.23
2022-10-17T12:33:59.145Z,18.90
2022-10-17T12:36:26.137Z,15.00
2022-10-17T12:39:01.824Z,13.63
2022-10-17T12:41:41.014Z,14.95
2022-10-17T12:44:14.506Z,15.07
2022-10-17T12:46:44.206Z,16.60
2022-10-17T12:49:39.656Z,18.00
2022-10-17T12:52:31.453Z,17.73
2022-10-17T12:55:18.304Z,19.80
2022-10-17T12:58:01.288Z,15.38
2022-10-17T13:01:05.309Z,21.67
2022-10-17T13:03:45.703Z,17.80
2022-10-17T13:06:22.034Z,21.60
2022-10-17T13:09:01.026Z,20.10
2022-10-17T13:11:32.422Z,15.20
2022-10-17T13:14:02.148Z,15.05
2022-10-17T13:16:41.189Z,16.40
2022-10-17T13:19:25.014Z,15.82
2022-10-17T13:22:16.184Z,20.05
2022-10-17T13:24:43.490Z,14.82
2022-10-17T13:27:31.902Z,14.07
2022-10-17T13:30:01.706Z,12.67
2022-10-17T13:32:38.713Z,14.57
2022-10-17T13:35:55.334Z,11.85
2022-10-17T13:40:50.717Z,16.25
2022-10-17T13:43:21.061Z,14.83
2022-10-17T13:45:58.101Z,21.15
2022-10-17T13:48:30.615Z,13.07
2022-10-17T13:51:03.886Z,12.10
2022-10-17T13:53:35.268Z,14.38
2022-10-17T13:56:27.832Z,11.13
2022-10-17T13:59:08.075Z,11.23
2022-10-17T14:01:38.592Z,16.58
2022-10-17T14:04:11.638Z,17.98
2022-10-17T14:06:49.365Z,14.23
2022-10-17T14:09:23.421Z,12.30
2022-10-17T14:12:15.521Z,13.88
2022-10-17T14:15:09.328Z,12.93
2022-10-17T14:17:38.570Z,14.23
2022-10-17T14:20:47.844Z,14.38
2022-10-17T14:23:22.431Z,11.53
2022-10-17T14:25:44.087Z,12.43
2022-10-17T14:28:20.802Z,9.45
2022-10-17T14:30:57.161Z,10.82
2022-10-17T14:33:28.372Z,15.27
2022-10-17T14:35:58.150Z,11.53
2022-10-17T14:38:25.736Z,9.80
2022-10-17T14:41:23.611Z,13.07
2022-10-17T14:43:57.256Z,12.18
2022-10-17T14:46:24.683Z,14.00
2022-10-17T14:48:58.852Z,13.40
2022-10-17T14:51:26.167Z,11.00
2022-10-17T14:54:19.409Z,12.10
2022-10-17T14:56:54.551Z,13.80
2022-10-17T14:59:52.974Z,11.23
2022-10-17T15:02:14.445Z,13.57
2022-10-17T15:04:41.993Z,14.80
2022-10-17T15:07:15.552Z,10.93
2022-10-17T15:09:44.269Z,15.23
2022-10-17T15:12:21.415Z,9.40
2022-10-17T15:14:48.789Z,10.43
2022-10-17T15:17:24.376Z,11.15
2022-10-17T15:19:58.932Z,7.82
2022-10-17T15:22:26.212Z,14.50
2022-10-17T15:24:53.330Z,14.75
2022-10-17T15:27:23.272Z,14.27
2022-10-17T15:29:51.796Z,13.52
2022-10-17T15:32:19.343Z,15.45
2022-10-17T15:34:46.405Z,13.02
2022-10-17T15:37:24.647Z,12.35
2022-10-17T15:39:54.762Z,16.63
2022-10-17T15:42:31.435Z,10.45
2022-10-17T15:44:58.730Z,12.40
2022-10-17T15:47:34.187Z,14.70
2022-10-17T15:50:02.090Z,11.25
2022-10-17T15:52:29.322Z,8.90
2022-10-17T15:54:58.515Z,12.05
2022-10-17T15:57:31.333Z,9.32
2022-10-17T16:00:00.711Z,9.23
2022-10-17T16:02:28.080Z,11.68
2022-10-17T16:04:55.195Z,10.17
2022-10-17T16:07:22.443Z,7.82
2022-10-17T16:09:49.260Z,14.27
2022-10-17T16:12:29.093Z,25.38
2022-10-17T16:14:58.626Z,21.55
2022-10-17T16:17:25.593Z,23.07
2022-10-17T16:19:52.762Z,17.73
2022-10-17T16:22:32.672Z,14.75
2022-10-17T16:25:07.691Z,11.52
2022-10-17T16:27:35.714Z,16.80
2022-10-17T16:30:07.224Z,16.43
2022-10-17T16:32:34.190Z,11.73
2022-10-17T16:35:01.548Z,13.95
2022-10-17T16:37:28.584Z,16.17
2022-10-17T16:39:55.600Z,10.95
2022-10-17T16:42:25.044Z,11.33
2022-10-17T16:44:54.777Z,13.77
2022-10-17T16:47:21.818Z,16.48
2022-10-17T16:49:48.895Z,18.20
2022-10-17T16:52:15.717Z,14.75
2022-10-17T16:54:42.581Z,17.37
2022-10-17T16:57:09.928Z,14.45
2022-10-17T16:59:37.170Z,19.10
2022-10-17T17:02:04.466Z,12.75
2022-10-17T17:04:31.730Z,18.15
2022-10-17T17:06:58.910Z,15.13
2022-10-17T17:09:25.897Z,14.23
2022-10-17T17:11:52.902Z,15.38
2022-10-17T17:14:19.931Z,16.63
2022-10-17T17:16:46.866Z,17.08
2022-10-17T17:19:20.380Z,27.67
2022-10-17T17:21:51.095Z,16.73
2022-10-17T17:24:22.864Z,16.25
2022-10-17T17:26:55.291Z,21.20
2022-10-17T17:29:23.635Z,17.83
2022-10-17T17:31:51.099Z,19.53
2022-10-17T17:34:18.465Z,18.55
2022-10-17T17:36:45.951Z,22.05
2022-10-17T17:39:14.453Z,20.85
2022-10-17T17:41:42.783Z,23.02
2022-10-17T17:44:16.439Z,21.77
2022-10-17T17:46:44.592Z,17.30
2022-10-17T17:49:12.857Z,22.35
2022-10-17T17:51:41.602Z,20.08
2022-10-17T17:54:11.639Z,15.13
2022-10-17T17:56:39.422Z,18.57
2022-10-17T17:59:07.558Z,25.60
2022-10-17T18:01:39.118Z,17.75
2022-10-17T18:04:08.971Z,20.35
2022-10-17T18:06:38.196Z,24.20
2022-10-17T18:09:26.331Z,27.87
2022-10-17T18:11:53.715Z,25.95
2022-10-17T18:14:24.032Z,23.88
2022-10-17T18:16:53.408Z,19.67
2022-10-17T18:19:20.671Z,22.38
2022-10-17T18:21:48.965Z,19.77
2022-10-17T18:24:17.043Z,26.55
2022-10-17T18:26:44.398Z,19.23
2022-10-17T18:29:15.359Z,25.55
2022-10-17T18:31:43.238Z,22.05
2022-10-17T18:34:13.659Z,19.97
2022-10-17T18:36:40.753Z,25.85
2022-10-17T18:39:08.186Z,19.25
2022-10-17T18:41:35.591Z,22.25
2022-10-17T18:44:05.442Z,19.33
2022-10-17T18:46:40.886Z,24.63
2022-10-17T18:49:10.233Z,21.60
2022-10-17T18:51:41.176Z,19.90
2022-10-17T18:54:22.225Z,24.67
2022-10-17T18:56:54.110Z,27.38
2022-10-17T18:59:21.803Z,24.37
2022-10-17T19:01:49.207Z,23.90
2022-10-17T19:04:16.492Z,22.48
2022-10-17T19:06:43.920Z,27.02
2022-10-17T19:09:14.314Z,41.47
2022-10-17T19:11:42.257Z,27.23
2022-10-17T19:14:14.767Z,31.17
2022-10-17T19:16:45.342Z,26.77
2022-10-17T19:19:20.233Z,33.28
2022-10-17T19:21:47.470Z,35.15
2022-10-17T19:24:20.143Z,32.07
2022-10-17T19:26:50.528Z,33.25
2022-10-17T19:29:18.785Z,32.55
2022-10-17T19:31:46.505Z,37.78
2022-10-17T19:34:34.653Z,37.40
2022-10-17T19:37:04.562Z,31.90
2022-10-17T19:39:31.729Z,27.05
2022-10-17T19:42:05.897Z,29.23
2022-10-17T19:44:35.368Z,28.35
2022-10-17T19:47:02.654Z,38.65
2022-10-17T19:49:30.006Z,42.63
2022-10-17T19:51:57.062Z,39.33
2022-10-17T19:54:24.266Z,36.65
2022-10-17T19:56:51.321Z,33.05
2022-10-17T19:59:18.951Z,37.58
2022-10-17T20:01:46.496Z,33.03
2022-10-17T20:04:14.693Z,28.05
2022-10-17T20:06:42.372Z,32.60
2022-10-17T20:09:13.965Z,34.08
2022-10-17T20:11:44.150Z,40.10
2022-10-17T20:14:13.599Z,31.57
2022-10-17T20:16:40.980Z,36.45
2022-10-17T20:19:10.550Z,36.65
2022-10-17T20:21:39.737Z,35.63
2022-10-17T20:24:08.762Z,42.17
2022-10-17T20:26:39.169Z,35.70
2022-10-17T20:29:15.803Z,33.10
2022-10-17T20:31:44.619Z,35.97
2022-10-17T20:34:16.579Z,41.25
2022-10-17T20:36:44.095Z,35.92
2022-10-17T20:39:13.453Z,35.37
2022-10-17T20:41:41.031Z,38.67
2022-10-17T20:44:08.382Z,38.42
2022-10-17T20:46:37.536Z,35.08
2022-10-17T20:49:08.816Z,32.38
2022-10-17T20:51:36.265Z,29.03
2022-10-17T20:54:04.378Z,36.83
2022-10-17T20:56:33.491Z,40.22
2022-10-17T20:59:03.375Z,34.65
2022-10-17T21:01:32.127Z,33.10
2022-10-17T21:04:10.624Z,34.77
2022-10-17T21:06:51.342Z,37.45
2022-10-17T21:09:18.361Z,36.53
2022-10-17T21:11:45.262Z,40.08
2022-10-17T21:14:12.476Z,33.10
2022-10-17T21:16:41.383Z,35.73
2022-10-17T21:19:09.686Z,36.42
2022-10-17T21:21:38.647Z,36.03
2022-10-17T21:24:09.228Z,36.30
2022-10-17T21:26:37.376Z,38.58
2022-10-17T21:29:05.998Z,27.10
2022-10-17T21:31:35.385Z,33.60
2022-10-17T21:34:07.202Z,35.97
2022-10-17T21:36:34.301Z,33.08
2022-10-17T21:39:01.606Z,36.03
2022-10-17T21:41:30.219Z,37.33
2022-10-17T21:44:11.903Z,33.78
2022-10-17T21:46:38.944Z,38.35
2022-10-17T21:49:05.897Z,33.05
2022-10-17T21:51:32.961Z,37.35
2022-10-17T21:54:00.033Z,36.77
2022-10-17T21:56:29.830Z,35.00
2022-10-17T21:59:00.016Z,43.63
2022-10-17T22:01:32.817Z,35.45
2022-10-17T22:04:02.288Z,40.60
2022-10-17T22:06:40.255Z,37.40
2022-10-17T22:09:15.290Z,35.92
2022-10-17T22:11:46.740Z,41.35
2022-10-17T22:14:16.796Z,44.47
2022-10-17T22:16:45.348Z,41.88
2022-10-17T22:19:14.037Z,37.37
2022-10-17T22:21:41.278Z,37.22
2022-10-17T22:24:16.945Z,41.22
2022-10-17T22:26:44.679Z,38.83
2022-10-17T22:29:12.441Z,37.97
2022-10-17T22:31:40.275Z,35.57
2022-10-17T22:34:08.179Z,37.10
2022-10-17T22:36:35.759Z,40.80
2022-10-17T22:39:03.703Z,37.17
2022-10-17T22:41:30.787Z,39.03
2022-10-17T22:43:57.927Z,37.90
2022-10-17T22:46:25.198Z,34.92
2022-10-17T22:48:52.258Z,35.10
2022-10-17T22:51:19.427Z,34.50
2022-10-17T22:53:46.464Z,35.40
2022-10-17T22:56:16.221Z,38.43
2022-10-17T22:58:43.596Z,36.15
